createdAt,value
2023-02-21T00:02:40.408Z,3.65
2023-02-21T00:05:25.848Z,4.68
2023-02-21T00:08:10.715Z,4.72
2023-02-21T00:10:55.640Z,3.92
2023-02-21T00:13:40.486Z,3.83
2023-02-21T00:16:25.793Z,3.45
2023-02-21T00:19:11.028Z,4.00
2023-02-21T00:21:55.948Z,3.08
2023-02-21T00:24:41.127Z,3.70
2023-02-21T00:27:26.585Z,2.83
2023-02-21T00:30:11.816Z,3.50
2023-02-21T00:32:57.029Z,2.95
2023-02-21T00:35:42.153Z,3.42
2023-02-21T00:38:27.033Z,2.53
2023-02-21T00:41:12.617Z,3.30
2023-02-21T00:43:57.676Z,3.25
2023-02-21T00:46:43.031Z,3.15
2023-02-21T00:49:28.015Z,3.15
2023-02-21T00:52:13.279Z,3.33
2023-02-21T00:54:58.840Z,3.88
2023-02-21T00:57:44.047Z,3.15
2023-02-21T01:00:37.038Z,4.15
2023-02-21T01:03:22.616Z,3.38
2023-02-21T01:06:08.254Z,3.80
2023-02-21T01:08:53.706Z,3.42
2023-02-21T01:11:40.369Z,3.55
2023-02-21T01:14:28.349Z,3.53
2023-02-21T01:17:13.932Z,3.08
2023-02-21T01:20:00.680Z,4.35
2023-02-21T01:22:46.998Z,3.33
2023-02-21T01:25:32.088Z,3.70
2023-02-21T01:28:17.239Z,3.90
2023-02-21T01:31:02.284Z,3.17
2023-02-21T01:33:47.739Z,4.50
2023-02-21T01:36:32.640Z,4.55
2023-02-21T01:39:17.347Z,3.90
2023-02-21T01:42:02.282Z,4.45
2023-02-21T01:44:51.847Z,3.95
2023-02-21T01:47:37.395Z,3.42
2023-02-21T01:50:31.104Z,3.17
2023-02-21T01:53:16.376Z,3.78
2023-02-21T01:56:02.525Z,3.72
2023-02-21T01:58:49.608Z,4.20
2023-02-21T02:01:44.861Z,3.47
2023-02-21T02:04:30.212Z,3.20
2023-02-21T02:07:15.597Z,3.60
2023-02-21T02:10:00.772Z,4.25
2023-02-21T02:12:43.190Z,4.03
2023-02-21T02:15:21.597Z,3.95
2023-02-21T02:18:22.242Z,4.18
2023-02-21T02:20:57.976Z,3.63
2023-02-21T02:23:49.697Z,4.43
2023-02-21T02:26:38.172Z,3.33
2023-02-21T02:29:40.417Z,3.08
2023-02-21T02:32:44.230Z,3.70
2023-02-21T02:35:19.708Z,4.55
2023-02-21T02:37:55.202Z,3.70
2023-02-21T02:40:30.592Z,3.78
2023-02-21T02:43:13.184Z,3.25
2023-02-21T02:45:53.740Z,3.95
2023-02-21T02:48:23.960Z,3.28
2023-02-21T02:50:51.682Z,4.00
2023-02-21T02:53:22.385Z,3.42
2023-02-21T02:56:04.840Z,3.58
2023-02-21T02:58:34.708Z,4.50
2023-02-21T03:01:29.036Z,2.92
2023-02-21T03:04:11.368Z,4.45
2023-02-21T03:06:56.385Z,3.38
2023-02-21T03:09:31.895Z,3.80
2023-02-21T03:12:34.079Z,3.92
2023-02-21T03:15:09.941Z,3.92
2023-02-21T03:17:40.647Z,3.70
2023-02-21T03:20:08.143Z,4.10
2023-02-21T03:22:35.117Z,4.10
2023-02-21T03:25:03.495Z,4.45
2023-02-21T03:27:31.412Z,4.40
2023-02-21T03:30:01.357Z,3.65
2023-02-21T03:32:41.112Z,3.75
2023-02-21T03:35:08.046Z,4.13
2023-02-21T03:37:49.366Z,3.35
2023-02-21T03:40:21.321Z,3.88
2023-02-21T03:42:47.908Z,4.85
2023-02-21T03:45:14.563Z,3.85
2023-02-21T03:47:41.073Z,3.47
2023-02-21T03:50:08.153Z,3.70
2023-02-21T03:52:34.721Z,4.22
2023-02-21T03:55:01.320Z,4.32
2023-02-21T03:57:27.898Z,3.65
2023-02-21T03:59:54.476Z,4.28
2023-02-21T04:02:21.124Z,3.88
2023-02-21T04:04:48.730Z,4.53
2023-02-21T04:07:17.302Z,4.30
2023-02-21T04:09:43.908Z,3.83
2023-02-21T04:12:10.514Z,4.32
2023-02-21T04:14:37.450Z,3.85
2023-02-21T04:17:04.074Z,5.18
2023-02-21T04:19:30.720Z,4.53
2023-02-21T04:21:57.373Z,4.03
2023-02-21T04:24:23.951Z,4.45
2023-02-21T04:26:50.451Z,4.35
2023-02-21T04:29:17.070Z,4.85
2023-02-21T04:31:43.747Z,4.78
2023-02-21T04:34:12.188Z,5.25
2023-02-21T04:36:39.614Z,4.23
2023-02-21T04:39:06.835Z,4.13
2023-02-21T04:41:33.867Z,4.47
2023-02-21T04:44:00.422Z,4.68
2023-02-21T04:46:26.996Z,4.07
2023-02-21T04:48:53.955Z,5.38
2023-02-21T04:51:23.284Z,5.00
2023-02-21T04:53:51.531Z,5.13
2023-02-21T04:56:21.068Z,4.57
2023-02-21T04:58:48.276Z,4.70
2023-02-21T05:01:16.633Z,5.20
2023-02-21T05:03:43.458Z,4.77
2023-02-21T05:06:09.982Z,3.60
2023-02-21T05:08:36.886Z,4.30
2023-02-21T05:11:03.828Z,5.43
2023-02-21T05:13:30.461Z,5.40
2023-02-21T05:15:57.109Z,5.00
2023-02-21T05:18:28.335Z,4.53
2023-02-21T05:20:55.618Z,3.97
2023-02-21T05:23:34.166Z,4.57
2023-02-21T05:26:02.018Z,4.70
2023-02-21T05:28:28.615Z,5.88
2023-02-21T05:30:55.662Z,4.80
2023-02-21T05:33:22.357Z,5.63
2023-02-21T05:35:49.704Z,5.70
2023-02-21T05:38:18.060Z,4.82
2023-02-21T05:40:45.080Z,6.63
2023-02-21T05:43:12.012Z,3.70
2023-02-21T05:45:38.635Z,4.32
2023-02-21T05:48:05.449Z,4.32
2023-02-21T05:50:32.083Z,4.18
2023-02-21T05:52:59.728Z,5.10
2023-02-21T05:55:26.892Z,3.97
2023-02-21T05:57:54.073Z,3.72
2023-02-21T06:00:28.994Z,4.93
2023-02-21T06:02:56.322Z,3.97
2023-02-21T06:05:23.397Z,3.85
2023-02-21T06:07:50.578Z,4.47
2023-02-21T06:10:19.479Z,4.38
2023-02-21T06:12:46.309Z,4.53
2023-02-21T06:15:13.305Z,4.45
2023-02-21T06:17:40.967Z,5.10
2023-02-21T06:20:11.121Z,5.38
2023-02-21T06:22:37.713Z,4.22
2023-02-21T06:25:04.471Z,4.28
2023-02-21T06:27:31.009Z,5.15
2023-02-21T06:29:57.652Z,5.20
2023-02-21T06:32:24.262Z,4.65
2023-02-21T06:34:50.788Z,4.28
2023-02-21T06:37:18.835Z,3.90
2023-02-21T06:39:45.796Z,3.65
2023-02-21T06:42:16.925Z,5.25
2023-02-21T06:44:44.947Z,4.30
2023-02-21T06:47:11.740Z,3.85
2023-02-21T06:49:38.442Z,4.40
2023-02-21T06:52:05.515Z,4.28
2023-02-21T06:54:32.386Z,4.38
2023-02-21T06:57:00.543Z,3.83
2023-02-21T06:59:28.445Z,4.00
2023-02-21T07:01:55.694Z,3.90
2023-02-21T07:04:22.739Z,3.20
2023-02-21T07:06:49.414Z,4.78
2023-02-21T07:09:16.026Z,3.35
2023-02-21T07:11:42.643Z,4.70
2023-02-21T07:14:11.386Z,4.15
2023-02-21T07:16:37.891Z,3.72
2023-02-21T07:19:04.488Z,4.07
2023-02-21T07:21:31.628Z,3.88
2023-02-21T07:23:58.151Z,4.35
2023-02-21T07:26:26.291Z,4.22
2023-02-21T07:28:53.123Z,3.22
2023-02-21T07:31:20.787Z,4.07
2023-02-21T07:33:47.665Z,5.22
2023-02-21T07:36:14.437Z,3.55
2023-02-21T07:38:41.045Z,3.30
2023-02-21T07:41:07.641Z,3.95
2023-02-21T07:43:34.291Z,3.00
2023-02-21T07:46:01.069Z,3.92
2023-02-21T07:48:28.121Z,3.70
2023-02-21T07:50:54.753Z,3.40
2023-02-21T07:53:21.398Z,3.15
2023-02-21T07:55:47.988Z,3.25
2023-02-21T07:58:14.622Z,3.13
2023-02-21T08:00:41.386Z,3.95
2023-02-21T08:03:09.308Z,4.05
2023-02-21T08:05:35.894Z,3.85
2023-02-21T08:08:02.419Z,3.83
2023-02-21T08:10:30.213Z,3.40
2023-02-21T08:12:56.772Z,3.67
2023-02-21T08:15:23.400Z,4.47
2023-02-21T08:17:50.584Z,4.20
2023-02-21T08:20:18.002Z,4.32
2023-02-21T08:22:44.981Z,3.15
2023-02-21T08:25:12.893Z,2.97
2023-02-21T08:27:43.324Z,3.47
2023-02-21T08:30:12.428Z,3.85
2023-02-21T08:32:39.007Z,3.83
2023-02-21T08:35:06.426Z,3.25
2023-02-21T08:37:36.237Z,4.15
2023-02-21T08:40:04.231Z,3.50
2023-02-21T08:42:30.872Z,4.20
2023-02-21T08:44:57.774Z,4.80
2023-02-21T08:47:24.326Z,3.20
2023-02-21T08:49:51.037Z,3.60
2023-02-21T08:52:19.256Z,2.83
2023-02-21T08:54:45.988Z,4.05
2023-02-21T08:57:13.318Z,3.50
2023-02-21T08:59:42.581Z,2.80
2023-02-21T09:02:17.697Z,3.22
2023-02-21T09:04:45.062Z,3.40
2023-02-21T09:07:17.076Z,3.45
2023-02-21T09:09:43.625Z,2.95
2023-02-21T09:12:10.698Z,3.35
2023-02-21T09:14:38.499Z,3.17
2023-02-21T09:17:06.617Z,3.17
2023-02-21T09:19:33.784Z,2.88
2023-02-21T09:22:01.841Z,3.35
2023-02-21T09:24:28.594Z,3.15
2023-02-21T09:26:59.057Z,2.63
2023-02-21T09:29:31.682Z,2.83
2023-02-21T09:32:04.664Z,3.20
2023-02-21T09:34:31.473Z,3.00
2023-02-21T09:36:58.048Z,3.08
2023-02-21T09:39:24.799Z,3.35
2023-02-21T09:41:53.591Z,2.60
2023-02-21T09:44:25.703Z,3.45
2023-02-21T09:46:55.168Z,3.40
2023-02-21T09:51:50.683Z,2.75
2023-02-21T09:54:26.400Z,2.67
2023-02-21T09:56:54.671Z,3.03
2023-02-21T09:59:21.292Z,3.10
2023-02-21T10:02:00.831Z,3.03
2023-02-21T10:04:33.516Z,2.45
2023-02-21T10:07:18.906Z,3.38
2023-02-21T10:10:18.712Z,2.53
2023-02-21T10:12:54.299Z,3.05
2023-02-21T10:15:43.621Z,3.05
2023-02-21T10:20:42.589Z,3.08
2023-02-21T10:23:22.894Z,3.38
2023-02-21T10:25:49.997Z,3.40
2023-02-21T10:28:22.832Z,3.25
2023-02-21T10:30:50.811Z,2.55
2023-02-21T10:33:17.542Z,2.90
2023-02-21T10:35:44.489Z,2.33
2023-02-21T10:38:14.076Z,2.97
2023-02-21T10:40:56.877Z,2.40
2023-02-21T10:43:23.347Z,2.80
2023-02-21T10:46:09.006Z,2.53
2023-02-21T10:48:37.840Z,2.92
2023-02-21T10:51:18.721Z,2.78
2023-02-21T10:53:47.164Z,2.13
2023-02-21T10:56:19.396Z,2.75
2023-02-21T10:58:48.992Z,2.80
2023-02-21T11:01:22.003Z,2.13
2023-02-21T11:03:53.792Z,3.67
2023-02-21T11:06:37.334Z,1.80
2023-02-21T11:09:35.812Z,2.15
2023-02-21T11:12:27.280Z,2.30
2023-02-21T11:14:53.711Z,3.17
2023-02-21T11:17:23.078Z,2.90
2023-02-21T11:22:25.116Z,1.90
2023-02-21T11:25:12.015Z,2.00
2023-02-21T11:27:38.778Z,2.38
2023-02-21T11:30:18.746Z,1.98
2023-02-21T11:32:54.468Z,2.42
2023-02-21T11:35:40.804Z,2.17
2023-02-21T11:38:11.348Z,2.85
2023-02-21T11:40:42.593Z,2.45
2023-02-21T11:43:19.544Z,2.22
2023-02-21T11:46:07.484Z,2.20
2023-02-21T11:48:57.344Z,2.83
2023-02-21T11:51:50.335Z,2.50
2023-02-21T11:54:25.305Z,2.70
2023-02-21T11:56:58.066Z,2.78
2023-02-21T11:59:27.610Z,2.63
2023-02-21T12:02:03.580Z,2.85
2023-02-21T12:04:48.678Z,2.45
2023-02-21T12:07:35.976Z,2.17
2023-02-21T12:10:09.837Z,2.58
2023-02-21T12:13:05.827Z,2.67
2023-02-21T12:15:55.040Z,3.03
2023-02-21T12:21:34.712Z,2.33
2023-02-21T12:24:31.335Z,2.28
2023-02-21T12:27:00.664Z,2.08
2023-02-21T12:30:06.020Z,2.55
2023-02-21T12:32:32.745Z,2.13
2023-02-21T12:35:08.645Z,2.67
2023-02-21T12:38:05.195Z,2.83
2023-02-21T12:40:49.840Z,2.70
2023-02-21T12:43:42.981Z,2.67
2023-02-21T12:46:15.354Z,2.50
2023-02-21T12:48:49.384Z,2.33
2023-02-21T12:51:22.654Z,2.20
2023-02-21T12:53:54.917Z,2.75
2023-02-21T12:56:26.970Z,2.78
2023-02-21T12:59:13.978Z,2.10
2023-02-21T13:01:46.170Z,2.65
2023-02-21T13:04:31.560Z,2.50
2023-02-21T13:07:32.848Z,2.47
2023-02-21T13:10:19.358Z,2.58
2023-02-21T13:13:13.889Z,2.35
2023-02-21T13:15:42.644Z,2.53
2023-02-21T13:18:28.093Z,2.42
2023-02-21T13:20:58.374Z,2.40
2023-02-21T13:24:02.500Z,2.67
2023-02-21T13:26:44.973Z,2.50
2023-02-21T13:29:20.536Z,2.28
2023-02-21T13:31:47.854Z,2.13
2023-02-21T13:34:19.282Z,2.67
2023-02-21T13:36:47.393Z,2.70
2023-02-21T13:39:22.532Z,2.70
2023-02-21T13:41:53.489Z,2.30
2023-02-21T13:44:26.819Z,2.13
2023-02-21T13:46:53.436Z,2.28
2023-02-21T13:49:40.032Z,2.05
2023-02-21T13:52:24.891Z,2.55
2023-02-21T13:55:16.834Z,2.70
2023-02-21T13:57:50.283Z,1.75
2023-02-21T14:00:25.638Z,2.05
2023-02-21T14:03:01.146Z,1.45
2023-02-21T14:05:50.890Z,2.08
2023-02-21T14:08:42.894Z,1.55
2023-02-21T14:11:15.657Z,1.63
2023-02-21T14:13:48.224Z,1.42
2023-02-21T14:16:15.276Z,1.50
2023-02-21T14:18:50.107Z,1.60
2023-02-21T14:21:35.938Z,1.35
2023-02-21T14:24:15.500Z,1.75
2023-02-21T14:26:57.870Z,1.75
2023-02-21T14:29:36.489Z,1.58
2023-02-21T14:32:03.680Z,1.30
2023-02-21T14:34:40.985Z,1.95
2023-02-21T14:37:16.536Z,1.35
2023-02-21T14:39:52.110Z,1.52
2023-02-21T14:42:29.968Z,1.38
2023-02-21T14:45:02.166Z,1.10
2023-02-21T14:47:55.135Z,1.52
2023-02-21T14:50:21.701Z,1.65
2023-02-21T14:53:30.363Z,1.55
2023-02-21T14:56:13.161Z,1.50
2023-02-21T14:59:08.524Z,1.35
2023-02-21T15:01:56.484Z,1.55
2023-02-21T15:04:26.152Z,1.80
2023-02-21T15:07:00.948Z,2.10
2023-02-21T15:09:27.712Z,1.17
2023-02-21T15:11:56.610Z,1.83
2023-02-21T15:14:27.135Z,1.30
2023-02-21T15:17:11.929Z,1.55
2023-02-21T15:19:38.879Z,1.33
2023-02-21T15:22:26.147Z,1.38
2023-02-21T15:25:08.108Z,1.50
2023-02-21T15:27:52.125Z,1.48
2023-02-21T15:30:24.977Z,1.92
2023-02-21T15:32:59.461Z,1.75
2023-02-21T15:35:32.011Z,1.40
2023-02-21T15:38:00.135Z,1.40
2023-02-21T15:40:27.591Z,1.40
2023-02-21T15:42:55.021Z,1.20
2023-02-21T15:45:23.696Z,1.65
2023-02-21T15:47:50.902Z,2.47
2023-02-21T15:50:38.480Z,1.20
2023-02-21T15:53:16.553Z,1.42
2023-02-21T15:55:44.900Z,1.65
2023-02-21T15:58:19.034Z,1.83
2023-02-21T16:00:50.734Z,1.45
2023-02-21T16:03:39.240Z,1.13
2023-02-21T16:06:27.966Z,1.70
2023-02-21T16:09:25.584Z,1.70
2023-02-21T16:12:01.166Z,3.30
2023-02-21T16:14:40.218Z,1.58
2023-02-21T16:17:15.818Z,1.00
2023-02-21T16:19:48.144Z,0.70
2023-02-21T16:22:59.261Z,1.25
2023-02-21T16:25:25.326Z,1.40
2023-02-21T16:27:53.653Z,1.00
2023-02-21T16:30:28.808Z,1.00
2023-02-21T16:33:03.586Z,1.05
2023-02-21T16:35:31.587Z,0.77
2023-02-21T16:37:59.489Z,1.15
2023-02-21T16:40:31.997Z,0.65
2023-02-21T16:42:59.105Z,0.73
2023-02-21T16:45:25.699Z,1.05
2023-02-21T16:47:57.179Z,1.13
2023-02-21T16:50:35.121Z,0.68
2023-02-21T16:53:01.870Z,1.13
2023-02-21T16:55:29.017Z,0.90
2023-02-21T16:58:19.480Z,1.80
2023-02-21T17:00:46.286Z,1.08
2023-02-21T17:03:13.038Z,0.80
2023-02-21T17:05:40.035Z,1.05
2023-02-21T17:08:06.646Z,0.90
2023-02-21T17:10:33.316Z,1.05
2023-02-21T17:13:01.696Z,0.93
2023-02-21T17:15:28.259Z,0.95
2023-02-21T17:17:54.924Z,0.93
2023-02-21T17:20:23.553Z,0.90
2023-02-21T17:22:51.192Z,0.90
2023-02-21T17:25:18.806Z,1.10
2023-02-21T17:27:45.657Z,1.10
2023-02-21T17:30:13.394Z,1.25
2023-02-21T17:32:40.100Z,0.88
2023-02-21T17:35:07.079Z,0.90
2023-02-21T17:37:33.697Z,0.98
2023-02-21T17:40:00.270Z,1.40
2023-02-21T17:42:26.881Z,1.00
2023-02-21T17:44:53.540Z,1.35
2023-02-21T17:47:21.491Z,1.17
2023-02-21T17:49:49.616Z,1.33
2023-02-21T17:52:16.929Z,1.60
2023-02-21T17:54:44.011Z,1.60
2023-02-21T17:57:10.808Z,1.85
2023-02-21T17:59:38.188Z,1.85
2023-02-21T18:02:06.232Z,1.98
2023-02-21T18:04:33.143Z,1.75
2023-02-21T18:06:59.906Z,1.50
2023-02-21T18:09:26.506Z,2.20
2023-02-21T18:11:55.295Z,1.70
2023-02-21T18:14:26.079Z,2.38
2023-02-21T18:16:52.852Z,1.92
2023-02-21T18:19:19.440Z,2.25
2023-02-21T18:21:46.372Z,3.15
2023-02-21T18:24:13.775Z,2.33
2023-02-21T18:26:40.717Z,2.25
2023-02-21T18:29:08.259Z,3.25
2023-02-21T18:31:35.219Z,2.83
2023-02-21T18:34:02.847Z,2.78
2023-02-21T18:36:29.804Z,2.50
2023-02-21T18:38:56.349Z,3.05
2023-02-21T18:41:23.033Z,2.72
2023-02-21T18:43:50.546Z,2.45
2023-02-21T18:46:20.166Z,2.33
2023-02-21T18:48:49.633Z,2.78
2023-02-21T18:51:19.589Z,2.45
2023-02-21T18:53:48.272Z,2.20
2023-02-21T18:56:17.196Z,2.27
2023-02-21T18:58:43.806Z,2.15
2023-02-21T19:01:12.325Z,2.45
2023-02-21T19:03:38.959Z,2.63
2023-02-21T19:06:07.964Z,1.85
2023-02-21T19:08:34.488Z,1.95
2023-02-21T19:11:01.077Z,1.88
2023-02-21T19:13:27.657Z,1.95
2023-02-21T19:15:54.200Z,2.05
2023-02-21T19:18:20.833Z,1.70
2023-02-21T19:20:49.341Z,1.38
2023-02-21T19:23:16.744Z,1.50
2023-02-21T19:25:43.365Z,1.60
2023-02-21T19:28:10.070Z,1.27
2023-02-21T19:30:37.167Z,1.17
2023-02-21T19:33:05.404Z,1.15
2023-02-21T19:35:32.959Z,0.95
2023-02-21T19:38:03.633Z,1.08
2023-02-21T19:40:30.507Z,1.30
2023-02-21T19:42:57.073Z,1.30
2023-02-21T19:45:23.795Z,1.20
2023-02-21T19:47:50.369Z,1.40
2023-02-21T19:50:16.947Z,1.23
2023-02-21T19:52:43.653Z,1.70
2023-02-21T19:55:11.372Z,1.30
2023-02-21T19:57:37.943Z,1.90
2023-02-21T20:00:08.541Z,1.33
2023-02-21T20:02:35.193Z,1.60
2023-02-21T20:05:01.904Z,1.50
2023-02-21T20:07:28.449Z,1.10
2023-02-21T20:09:55.068Z,1.30
2023-02-21T20:12:23.040Z,1.40
2023-02-21T20:14:50.813Z,1.25
2023-02-21T20:17:18.139Z,1.20
2023-02-21T20:19:44.947Z,1.20
2023-02-21T20:22:11.533Z,2.97
2023-02-21T20:24:38.179Z,1.48
2023-02-21T20:27:04.841Z,1.40
2023-02-21T20:29:31.447Z,1.23
2023-02-21T20:31:58.532Z,1.20
2023-02-21T20:34:25.172Z,1.02
2023-02-21T20:36:51.894Z,1.67
2023-02-21T20:39:23.405Z,1.30
2023-02-21T20:41:50.013Z,1.50
2023-02-21T20:44:16.776Z,1.63
2023-02-21T20:46:43.677Z,1.27
2023-02-21T20:49:14.133Z,1.55
2023-02-21T20:51:42.178Z,1.23
2023-02-21T20:54:11.197Z,1.75
2023-02-21T20:56:39.800Z,1.30
2023-02-21T20:59:10.014Z,1.20
2023-02-21T21:01:36.907Z,0.95
2023-02-21T21:04:05.308Z,1.00
2023-02-21T21:06:32.048Z,0.80
2023-02-21T21:08:58.644Z,0.90
2023-02-21T21:11:28.812Z,1.10
2023-02-21T21:13:55.489Z,1.00
2023-02-21T21:16:22.083Z,0.98
2023-02-21T21:18:48.633Z,0.80
2023-02-21T21:21:15.548Z,0.98
2023-02-21T21:23:42.329Z,0.80
2023-02-21T21:26:09.541Z,0.75
2023-02-21T21:28:36.403Z,0.80
2023-02-21T21:31:03.573Z,0.75
2023-02-21T21:33:30.305Z,0.88
2023-02-21T21:35:59.923Z,0.90
2023-02-21T21:38:28.438Z,0.77
2023-02-21T21:40:56.875Z,1.02
2023-02-21T21:43:24.404Z,0.98
2023-02-21T21:45:51.703Z,0.80
2023-02-21T21:48:18.682Z,0.63
2023-02-21T21:50:45.490Z,0.52
2023-02-21T21:53:12.108Z,0.43
2023-02-21T21:55:38.969Z,0.50
2023-02-21T21:58:10.786Z,0.50
2023-02-21T22:00:47.240Z,0.80
2023-02-21T22:03:18.321Z,0.75
2023-02-21T22:05:46.137Z,0.98
2023-02-21T22:08:16.714Z,1.25
2023-02-21T22:10:45.089Z,1.55
2023-02-21T22:13:15.230Z,2.28
2023-02-21T22:15:43.373Z,1.80
2023-02-21T22:18:11.162Z,1.13
2023-02-21T22:20:37.805Z,0.90
2023-02-21T22:23:05.951Z,0.90
2023-02-21T22:25:36.821Z,0.73
2023-02-21T22:28:09.525Z,0.95
2023-02-21T22:30:39.937Z,0.60
2023-02-21T22:33:08.320Z,0.80
2023-02-21T22:35:35.085Z,0.73
2023-02-21T22:38:02.113Z,0.90
2023-02-21T22:40:30.181Z,1.00
2023-02-21T22:42:59.395Z,1.02
2023-02-21T22:45:27.729Z,0.60
2023-02-21T22:47:55.956Z,1.10
2023-02-21T22:50:23.600Z,0.98
2023-02-21T22:52:54.896Z,0.80
2023-02-21T22:55:27.173Z,1.00
2023-02-21T22:57:57.993Z,0.88
2023-02-21T23:00:33.086Z,1.00
2023-02-21T23:03:01.449Z,0.65
2023-02-21T23:05:28.463Z,0.80
2023-02-21T23:07:59.870Z,0.88
2023-02-21T23:10:28.184Z,1.00
2023-02-21T23:13:00.316Z,0.73
2023-02-21T23:15:27.710Z,0.70
2023-02-21T23:17:54.501Z,0.70
2023-02-21T23:20:23.368Z,1.00
2023-02-21T23:22:52.330Z,0.60
2023-02-21T23:25:22.993Z,0.80
2023-02-21T23:27:58.000Z,1.23
2023-02-21T23:30:36.286Z,0.70
2023-02-21T23:33:03.276Z,1.05
2023-02-21T23:35:29.811Z,0.88
2023-02-21T23:38:00.059Z,1.00
2023-02-21T23:40:28.070Z,1.13
2023-02-21T23:42:55.022Z,1.10
2023-02-21T23:45:23.870Z,1.50
2023-02-21T23:47:55.537Z,1.10
2023-02-21T23:50:24.622Z,1.17
2023-02-21T23:52:53.192Z,1.15
2023-02-21T23:55:27.894Z,1.97
2023-02-21T23:57:56.489Z,1.23
